Reedville, Arkansas
Current Conditions -  °F | °C
As of 4:53 PM on Monday 22 Dec 2014 (Local Time) from KLLQ Reporting Station
Overcast Overcast  
Wind Chill: 59°   Ceiling: 5500
Heat Index: 59°   Visibility: 8mi
Dew Point: 56°   Wind: 3mph
Humidity: 90%   Direction: 160°SSE
Pressure: 29.6"   Gusts: NA
Location:  33.9283°N, 91.468°W
Report Text: KLLQ 222253Z AUTO 16003KT 8SM FEW014 SCT023 OVC055 15/13 A2960 RMK AO2 SLP022 T01500133
Loading
Personal Weather Stations






























Interactive Weather Map New forecast layout! Learn more

10-Day Weather Forecast

Advertisements
Track Severe Weather on mobile